sensor_id;sensor_type;location;lat;lon;timestamp;P1;durP1;ratioP1;P2;durP2;ratioP2
10872;SDS011;34586;53.616;10.032;2024-01-15T00:01:44;8.97;;;1.37;;
10872;SDS011;34586;53.616;10.032;2024-01-15T00:04:10;8.73;;;1.17;;
10872;SDS011;34586;53.616;10.032;2024-01-15T00:06:36;5.93;;;1.40;;
10872;SDS011;34586;53.616;10.032;2024-01-15T00:09:01;8.50;;;1.53;;
10872;SDS011;34586;53.616;10.032;2024-01-15T00:11:27;13.43;;;2.23;;
10872;SDS011;34586;53.616;10.032;2024-01-15T00:13:53;14.27;;;1.40;;
10872;SDS011;34586;53.616;10.032;2024-01-15T00:16:18;8.63;;;1.50;;
10872;SDS011;34586;53.616;10.032;2024-01-15T00:18:44;9.83;;;1.80;;
10872;SDS011;34586;53.616;10.032;2024-01-15T00:21:10;12.00;;;1.40;;
10872;SDS011;34586;53.616;10.032;2024-01-15T00:23:35;7.80;;;1.50;;
10872;SDS011;34586;53.616;10.032;2024-01-15T00:26:01;8.67;;;1.70;;
10872;SDS011;34586;53.616;10.032;2024-01-15T00:28:26;10.97;;;1.87;;
10872;SDS011;34586;53.616;10.032;2024-01-15T00:30:52;6.03;;;1.50;;
10872;SDS011;34586;53.616;10.032;2024-01-15T00:33:17;13.70;;;2.00;;
10872;SDS011;34586;53.616;10.032;2024-01-15T00:35:43;11.37;;;1.43;;
10872;SDS011;34586;53.616;10.032;2024-01-15T00:38:08;7.37;;;1.43;;
10872;SDS011;34586;53.616;10.032;2024-01-15T00:40:34;7.90;;;2.10;;
10872;SDS011;34586;53.616;10.032;2024-01-15T00:43:00;8.57;;;1.73;;
10872;SDS011;34586;53.616;10.032;2024-01-15T00:45:27;11.17;;;1.90;;
10872;SDS011;34586;53.616;10.032;2024-01-15T00:47:52;9.17;;;1.60;;
10872;SDS011;34586;53.616;10.032;2024-01-15T00:50:18;11.37;;;1.80;;
10872;SDS011;34586;53.616;10.032;2024-01-15T00:52:43;11.97;;;1.77;;
10872;SDS011;34586;53.616;10.032;2024-01-15T00:55:09;10.07;;;1.67;;
10872;SDS011;34586;53.616;10.032;2024-01-15T00:57:35;9.70;;;1.73;;
10872;SDS011;34586;53.616;10.032;2024-01-15T01:00:00;17.63;;;2.53;;
10872;SDS011;34586;53.616;10.032;2024-01-15T01:02:26;8.87;;;2.10;;
10872;SDS011;34586;53.616;10.032;2024-01-15T01:04:52;14.37;;;2.30;;
10872;SDS011;34586;53.616;10.032;2024-01-15T01:07:17;11.73;;;1.53;;
10872;SDS011;34586;53.616;10.032;2024-01-15T01:09:44;13.30;;;2.20;;
10872;SDS011;34586;53.616;10.032;2024-01-15T01:12:10;14.40;;;2.20;;
10872;SDS011;34586;53.616;10.032;2024-01-15T01:14:36;7.87;;;2.00;;
10872;SDS011;34586;53.616;10.032;2024-01-15T01:17:02;12.07;;;2.80;;
10872;SDS011;34586;53.616;10.032;2024-01-15T01:19:28;17.17;;;2.57;;
10872;SDS011;34586;53.616;10.032;2024-01-15T01:21:53;14.67;;;2.03;;
10872;SDS011;34586;53.616;10.032;2024-01-15T01:24:19;12.27;;;1.97;;
10872;SDS011;34586;53.616;10.032;2024-01-15T01:26:45;13.80;;;1.80;;
10872;SDS011;34586;53.616;10.032;2024-01-15T01:29:11;14.80;;;1.77;;
10872;SDS011;34586;53.616;10.032;2024-01-15T01:31:42;9.47;;;1.83;;
10872;SDS011;34586;53.616;10.032;2024-01-15T01:34:10;13.43;;;2.17;;
10872;SDS011;34586;53.616;10.032;2024-01-15T01:36:38;8.90;;;1.53;;
10872;SDS011;34586;53.616;10.032;2024-01-15T01:39:04;11.33;;;1.73;;
10872;SDS011;34586;53.616;10.032;2024-01-15T01:41:30;8.17;;;1.17;;
10872;SDS011;34586;53.616;10.032;2024-01-15T01:43:56;13.00;;;1.93;;
10872;SDS011;34586;53.616;10.032;2024-01-15T01:46:22;10.73;;;1.47;;
10872;SDS011;34586;53.616;10.032;2024-01-15T01:48:48;12.30;;;2.13;;
10872;SDS011;34586;53.616;10.032;2024-01-15T01:51:14;17.20;;;1.87;;
10872;SDS011;34586;53.616;10.032;2024-01-15T01:53:40;13.33;;;1.97;;
10872;SDS011;34586;53.616;10.032;2024-01-15T01:56:06;10.13;;;1.43;;
10872;SDS011;34586;53.616;10.032;2024-01-15T01:58:32;17.07;;;1.70;;
10872;SDS011;34586;53.616;10.032;2024-01-15T02:00:59;17.73;;;2.10;;
10872;SDS011;34586;53.616;10.032;2024-01-15T02:03:25;11.10;;;1.97;;
10872;SDS011;34586;53.616;10.032;2024-01-15T02:05:52;13.07;;;2.33;;
10872;SDS011;34586;53.616;10.032;2024-01-15T02:08:18;11.60;;;1.93;;
10872;SDS011;34586;53.616;10.032;2024-01-15T02:10:44;12.77;;;1.73;;
10872;SDS011;34586;53.616;10.032;2024-01-15T02:13:10;12.67;;;2.13;;
10872;SDS011;34586;53.616;10.032;2024-01-15T02:15:35;11.03;;;1.70;;
10872;SDS011;34586;53.616;10.032;2024-01-15T02:18:04;8.87;;;2.10;;
10872;SDS011;34586;53.616;10.032;2024-01-15T02:20:32;10.27;;;1.50;;
10872;SDS011;34586;53.616;10.032;2024-01-15T02:23:16;9.70;;;1.80;;
10872;SDS011;34586;53.616;10.032;2024-01-15T02:25:43;9.13;;;2.10;;
10872;SDS011;34586;53.616;10.032;2024-01-15T02:28:11;9.87;;;1.93;;
10872;SDS011;34586;53.616;10.032;2024-01-15T02:30:38;12.20;;;1.97;;
10872;SDS011;34586;53.616;10.032;2024-01-15T02:33:05;6.33;;;1.60;;
10872;SDS011;34586;53.616;10.032;2024-01-15T02:35:31;8.67;;;1.53;;
10872;SDS011;34586;53.616;10.032;2024-01-15T02:37:58;10.83;;;1.40;;
10872;SDS011;34586;53.616;10.032;2024-01-15T02:40:23;11.83;;;1.97;;
10872;SDS011;34586;53.616;10.032;2024-01-15T02:42:49;10.43;;;2.27;;
10872;SDS011;34586;53.616;10.032;2024-01-15T02:45:15;11.33;;;2.10;;
10872;SDS011;34586;53.616;10.032;2024-01-15T02:47:40;8.67;;;1.97;;
10872;SDS011;34586;53.616;10.032;2024-01-15T02:50:06;10.40;;;1.70;;
10872;SDS011;34586;53.616;10.032;2024-01-15T02:52:32;7.90;;;1.73;;
10872;SDS011;34586;53.616;10.032;2024-01-15T02:54:57;13.97;;;1.57;;
10872;SDS011;34586;53.616;10.032;2024-01-15T02:57:23;12.57;;;2.50;;
10872;SDS011;34586;53.616;10.032;2024-01-15T02:59:48;11.10;;;1.70;;
10872;SDS011;34586;53.616;10.032;2024-01-15T03:02:14;11.33;;;1.93;;
10872;SDS011;34586;53.616;10.032;2024-01-15T03:04:45;13.47;;;2.40;;
10872;SDS011;34586;53.616;10.032;2024-01-15T03:07:11;9.80;;;1.93;;
10872;SDS011;34586;53.616;10.032;2024-01-15T03:09:37;15.40;;;2.40;;
10872;SDS011;34586;53.616;10.032;2024-01-15T03:12:03;11.20;;;1.93;;
10872;SDS011;34586;53.616;10.032;2024-01-15T03:14:29;13.60;;;1.90;;
10872;SDS011;34586;53.616;10.032;2024-01-15T03:16:55;13.23;;;1.73;;
10872;SDS011;34586;53.616;10.032;2024-01-15T03:19:21;8.93;;;1.67;;
10872;SDS011;34586;53.616;10.032;2024-01-15T03:21:46;12.27;;;1.80;;
10872;SDS011;34586;53.616;10.032;2024-01-15T03:24:12;17.13;;;2.57;;
10872;SDS011;34586;53.616;10.032;2024-01-15T03:26:37;17.80;;;2.43;;
10872;SDS011;34586;53.616;10.032;2024-01-15T03:29:03;15.17;;;2.53;;
10872;SDS011;34586;53.616;10.032;2024-01-15T03:31:28;11.10;;;1.93;;
10872;SDS011;34586;53.616;10.032;2024-01-15T03:33:54;11.30;;;2.00;;
10872;SDS011;34586;53.616;10.032;2024-01-15T03:36:20;12.70;;;2.33;;
10872;SDS011;34586;53.616;10.032;2024-01-15T03:38:45;16.00;;;2.47;;
10872;SDS011;34586;53.616;10.032;2024-01-15T03:41:11;16.10;;;1.93;;
10872;SDS011;34586;53.616;10.032;2024-01-15T03:43:37;18.73;;;2.97;;
10872;SDS011;34586;53.616;10.032;2024-01-15T03:46:03;9.80;;;2.33;;
10872;SDS011;34586;53.616;10.032;2024-01-15T03:48:29;16.57;;;2.47;;
10872;SDS011;34586;53.616;10.032;2024-01-15T03:50:55;17.33;;;2.70;;
10872;SDS011;34586;53.616;10.032;2024-01-15T03:53:21;16.63;;;2.10;;
10872;SDS011;34586;53.616;10.032;2024-01-15T03:55:46;18.97;;;2.83;;
10872;SDS011;34586;53.616;10.032;2024-01-15T03:58:12;15.27;;;2.70;;
10872;SDS011;34586;53.616;10.032;2024-01-15T04:00:40;17.80;;;2.83;;
10872;SDS011;34586;53.616;10.032;2024-01-15T04:03:06;15.73;;;3.33;;
10872;SDS011;34586;53.616;10.032;2024-01-15T04:05:31;15.03;;;2.47;;
10872;SDS011;34586;53.616;10.032;2024-01-15T04:07:57;16.63;;;2.40;;
10872;SDS011;34586;53.616;10.032;2024-01-15T04:10:22;18.47;;;2.90;;
10872;SDS011;34586;53.616;10.032;2024-01-15T04:12:48;18.90;;;2.10;;
10872;SDS011;34586;53.616;10.032;2024-01-15T04:15:13;13.07;;;2.47;;
10872;SDS011;34586;53.616;10.032;2024-01-15T04:17:39;14.20;;;2.47;;
10872;SDS011;34586;53.616;10.032;2024-01-15T04:20:05;14.00;;;2.03;;
10872;SDS011;34586;53.616;10.032;2024-01-15T04:22:31;13.73;;;2.13;;
10872;SDS011;34586;53.616;10.032;2024-01-15T04:24:57;14.83;;;1.90;;
10872;SDS011;34586;53.616;10.032;2024-01-15T04:27:22;12.20;;;2.00;;
10872;SDS011;34586;53.616;10.032;2024-01-15T04:29:48;13.73;;;2.23;;
10872;SDS011;34586;53.616;10.032;2024-01-15T04:32:13;20.00;;;2.40;;
10872;SDS011;34586;53.616;10.032;2024-01-15T04:34:39;14.07;;;2.07;;
10872;SDS011;34586;53.616;10.032;2024-01-15T04:37:05;17.87;;;2.53;;
10872;SDS011;34586;53.616;10.032;2024-01-15T04:39:30;9.17;;;1.77;;
10872;SDS011;34586;53.616;10.032;2024-01-15T04:41:56;22.83;;;2.33;;
10872;SDS011;34586;53.616;10.032;2024-01-15T04:44:21;13.03;;;2.63;;
10872;SDS011;34586;53.616;10.032;2024-01-15T04:46:47;13.13;;;2.10;;
10872;SDS011;34586;53.616;10.032;2024-01-15T04:49:13;19.60;;;2.93;;
10872;SDS011;34586;53.616;10.032;2024-01-15T04:51:38;18.87;;;2.63;;
10872;SDS011;34586;53.616;10.032;2024-01-15T04:54:04;17.07;;;2.43;;
10872;SDS011;34586;53.616;10.032;2024-01-15T04:56:29;17.50;;;2.80;;
10872;SDS011;34586;53.616;10.032;2024-01-15T04:58:55;22.50;;;2.87;;
10872;SDS011;34586;53.616;10.032;2024-01-15T05:01:21;23.97;;;3.33;;
10872;SDS011;34586;53.616;10.032;2024-01-15T05:03:46;19.10;;;3.33;;
10872;SDS011;34586;53.616;10.032;2024-01-15T05:06:12;23.67;;;3.23;;
10872;SDS011;34586;53.616;10.032;2024-01-15T05:08:37;17.63;;;2.97;;
10872;SDS011;34586;53.616;10.032;2024-01-15T05:11:03;29.87;;;4.50;;
10872;SDS011;34586;53.616;10.032;2024-01-15T05:13:29;26.03;;;3.93;;
10872;SDS011;34586;53.616;10.032;2024-01-15T05:15:54;18.67;;;3.67;;
10872;SDS011;34586;53.616;10.032;2024-01-15T05:18:20;24.73;;;3.73;;
10872;SDS011;34586;53.616;10.032;2024-01-15T05:20:45;24.67;;;3.73;;
10872;SDS011;34586;53.616;10.032;2024-01-15T05:23:11;25.17;;;3.40;;
10872;SDS011;34586;53.616;10.032;2024-01-15T05:25:36;21.17;;;3.40;;
10872;SDS011;34586;53.616;10.032;2024-01-15T05:28:02;16.27;;;3.37;;
10872;SDS011;34586;53.616;10.032;2024-01-15T05:30:28;20.77;;;2.93;;
10872;SDS011;34586;53.616;10.032;2024-01-15T05:32:53;15.23;;;2.90;;
10872;SDS011;34586;53.616;10.032;2024-01-15T05:35:19;19.30;;;3.17;;
10872;SDS011;34586;53.616;10.032;2024-01-15T05:37:45;14.13;;;3.00;;
10872;SDS011;34586;53.616;10.032;2024-01-15T05:40:11;22.87;;;3.43;;
10872;SDS011;34586;53.616;10.032;2024-01-15T05:42:37;20.60;;;3.40;;
10872;SDS011;34586;53.616;10.032;2024-01-15T05:45:04;21.67;;;3.23;;
10872;SDS011;34586;53.616;10.032;2024-01-15T05:47:30;24.53;;;2.93;;
10872;SDS011;34586;53.616;10.032;2024-01-15T05:49:56;22.83;;;3.33;;
10872;SDS011;34586;53.616;10.032;2024-01-15T05:52:23;18.20;;;3.10;;
10872;SDS011;34586;53.616;10.032;2024-01-15T05:54:49;26.13;;;4.10;;
10872;SDS011;34586;53.616;10.032;2024-01-15T05:57:15;19.90;;;2.97;;
10872;SDS011;34586;53.616;10.032;2024-01-15T05:59:40;15.13;;;2.90;;
10872;SDS011;34586;53.616;10.032;2024-01-15T06:02:06;17.97;;;2.73;;
10872;SDS011;34586;53.616;10.032;2024-01-15T06:04:32;14.97;;;2.93;;
10872;SDS011;34586;53.616;10.032;2024-01-15T06:06:57;22.43;;;3.73;;
10872;SDS011;34586;53.616;10.032;2024-01-15T06:09:23;17.40;;;3.00;;
10872;SDS011;34586;53.616;10.032;2024-01-15T06:11:48;22.87;;;3.80;;
10872;SDS011;34586;53.616;10.032;2024-01-15T06:14:14;19.63;;;3.27;;
10872;SDS011;34586;53.616;10.032;2024-01-15T06:16:40;20.27;;;3.47;;
10872;SDS011;34586;53.616;10.032;2024-01-15T06:19:05;14.00;;;2.73;;
10872;SDS011;34586;53.616;10.032;2024-01-15T06:21:31;20.87;;;3.50;;
10872;SDS011;34586;53.616;10.032;2024-01-15T06:23:57;16.53;;;3.00;;
10872;SDS011;34586;53.616;10.032;2024-01-15T06:26:22;21.80;;;3.43;;
10872;SDS011;34586;53.616;10.032;2024-01-15T06:28:48;17.30;;;3.10;;
10872;SDS011;34586;53.616;10.032;2024-01-15T06:31:14;25.97;;;3.17;;
10872;SDS011;34586;53.616;10.032;2024-01-15T06:33:40;16.33;;;2.80;;
10872;SDS011;34586;53.616;10.032;2024-01-15T06:36:05;21.70;;;3.23;;
10872;SDS011;34586;53.616;10.032;2024-01-15T06:38:31;22.10;;;2.77;;
10872;SDS011;34586;53.616;10.032;2024-01-15T06:40:57;18.90;;;2.97;;
10872;SDS011;34586;53.616;10.032;2024-01-15T06:43:22;19.10;;;2.67;;
10872;SDS011;34586;53.616;10.032;2024-01-15T06:45:48;19.10;;;3.03;;
10872;SDS011;34586;53.616;10.032;2024-01-15T06:48:14;18.50;;;2.80;;
10872;SDS011;34586;53.616;10.032;2024-01-15T06:50:41;14.00;;;2.37;;
10872;SDS011;34586;53.616;10.032;2024-01-15T06:53:07;12.27;;;2.30;;
10872;SDS011;34586;53.616;10.032;2024-01-15T06:55:33;17.80;;;2.47;;
10872;SDS011;34586;53.616;10.032;2024-01-15T06:57:59;20.30;;;2.50;;
10872;SDS011;34586;53.616;10.032;2024-01-15T07:00:25;17.27;;;3.00;;
10872;SDS011;34586;53.616;10.032;2024-01-15T07:02:50;16.87;;;2.40;;
10872;SDS011;34586;53.616;10.032;2024-01-15T07:05:16;16.33;;;3.00;;
10872;SDS011;34586;53.616;10.032;2024-01-15T07:07:42;14.37;;;2.17;;
10872;SDS011;34586;53.616;10.032;2024-01-15T07:10:08;12.13;;;2.50;;
10872;SDS011;34586;53.616;10.032;2024-01-15T07:12:34;16.30;;;2.70;;
10872;SDS011;34586;53.616;10.032;2024-01-15T07:15:00;13.80;;;2.90;;
10872;SDS011;34586;53.616;10.032;2024-01-15T07:17:27;15.00;;;2.47;;
10872;SDS011;34586;53.616;10.032;2024-01-15T07:19:53;12.70;;;2.17;;
10872;SDS011;34586;53.616;10.032;2024-01-15T07:22:18;14.50;;;2.30;;
10872;SDS011;34586;53.616;10.032;2024-01-15T07:24:44;12.90;;;2.23;;
10872;SDS011;34586;53.616;10.032;2024-01-15T07:27:10;13.40;;;2.40;;
10872;SDS011;34586;53.616;10.032;2024-01-15T07:29:36;12.63;;;2.37;;
10872;SDS011;34586;53.616;10.032;2024-01-15T07:32:02;10.00;;;1.90;;
10872;SDS011;34586;53.616;10.032;2024-01-15T07:34:28;8.03;;;2.03;;
10872;SDS011;34586;53.616;10.032;2024-01-15T07:36:54;13.83;;;2.30;;
10872;SDS011;34586;53.616;10.032;2024-01-15T07:39:20;12.47;;;1.80;;
10872;SDS011;34586;53.616;10.032;2024-01-15T07:41:47;10.37;;;1.70;;
10872;SDS011;34586;53.616;10.032;2024-01-15T07:44:13;9.00;;;1.83;;
10872;SDS011;34586;53.616;10.032;2024-01-15T07:46:38;10.60;;;1.87;;
10872;SDS011;34586;53.616;10.032;2024-01-15T07:49:04;6.23;;;1.27;;
10872;SDS011;34586;53.616;10.032;2024-01-15T07:51:30;7.73;;;1.87;;
10872;SDS011;34586;53.616;10.032;2024-01-15T07:53:56;9.37;;;1.53;;
10872;SDS011;34586;53.616;10.032;2024-01-15T07:56:21;10.33;;;1.53;;
10872;SDS011;34586;53.616;10.032;2024-01-15T07:58:47;7.60;;;1.40;;
10872;SDS011;34586;53.616;10.032;2024-01-15T08:01:12;9.57;;;1.70;;
10872;SDS011;34586;53.616;10.032;2024-01-15T08:03:38;10.20;;;1.40;;
10872;SDS011;34586;53.616;10.032;2024-01-15T08:06:05;8.27;;;1.70;;
10872;SDS011;34586;53.616;10.032;2024-01-15T08:08:30;7.03;;;1.23;;
10872;SDS011;34586;53.616;10.032;2024-01-15T08:10:56;8.90;;;1.10;;
10872;SDS011;34586;53.616;10.032;2024-01-15T08:13:22;9.07;;;1.57;;
10872;SDS011;34586;53.616;10.032;2024-01-15T08:15:47;6.00;;;1.23;;
10872;SDS011;34586;53.616;10.032;2024-01-15T08:18:13;12.03;;;1.60;;
10872;SDS011;34586;53.616;10.032;2024-01-15T08:20:39;11.57;;;1.67;;
10872;SDS011;34586;53.616;10.032;2024-01-15T08:23:05;8.93;;;1.60;;
10872;SDS011;34586;53.616;10.032;2024-01-15T08:25:30;8.57;;;1.47;;
10872;SDS011;34586;53.616;10.032;2024-01-15T08:27:56;13.33;;;2.03;;
10872;SDS011;34586;53.616;10.032;2024-01-15T08:30:25;9.37;;;1.30;;
10872;SDS011;34586;53.616;10.032;2024-01-15T08:32:53;9.43;;;1.40;;
10872;SDS011;34586;53.616;10.032;2024-01-15T08:35:20;8.70;;;1.57;;
10872;SDS011;34586;53.616;10.032;2024-01-15T08:37:48;11.57;;;1.60;;
10872;SDS011;34586;53.616;10.032;2024-01-15T08:40:14;10.63;;;1.90;;
10872;SDS011;34586;53.616;10.032;2024-01-15T08:42:40;7.43;;;1.63;;
10872;SDS011;34586;53.616;10.032;2024-01-15T08:45:06;11.23;;;2.17;;
10872;SDS011;34586;53.616;10.032;2024-01-15T08:47:32;13.20;;;2.13;;
10872;SDS011;34586;53.616;10.032;2024-01-15T08:49:58;6.33;;;1.17;;
10872;SDS011;34586;53.616;10.032;2024-01-15T08:52:24;4.80;;;1.40;;
10872;SDS011;34586;53.616;10.032;2024-01-15T08:54:49;8.70;;;1.60;;
10872;SDS011;34586;53.616;10.032;2024-01-15T08:57:15;6.07;;;1.50;;
10872;SDS011;34586;53.616;10.032;2024-01-15T08:59:41;10.83;;;1.83;;
10872;SDS011;34586;53.616;10.032;2024-01-15T09:02:07;12.27;;;1.80;;
10872;SDS011;34586;53.616;10.032;2024-01-15T09:04:32;16.30;;;1.70;;
10872;SDS011;34586;53.616;10.032;2024-01-15T09:06:58;8.57;;;1.67;;
10872;SDS011;34586;53.616;10.032;2024-01-15T09:09:24;7.60;;;1.30;;
10872;SDS011;34586;53.616;10.032;2024-01-15T09:11:50;7.50;;;1.53;;
10872;SDS011;34586;53.616;10.032;2024-01-15T09:14:16;13.77;;;1.63;;
10872;SDS011;34586;53.616;10.032;2024-01-15T09:16:41;7.57;;;1.30;;
10872;SDS011;34586;53.616;10.032;2024-01-15T09:19:07;12.10;;;1.77;;
10872;SDS011;34586;53.616;10.032;2024-01-15T09:21:33;10.43;;;1.27;;
10872;SDS011;34586;53.616;10.032;2024-01-15T09:23:59;8.67;;;1.37;;
10872;SDS011;34586;53.616;10.032;2024-01-15T09:26:26;5.80;;;1.30;;
10872;SDS011;34586;53.616;10.032;2024-01-15T09:28:51;6.77;;;1.63;;
10872;SDS011;34586;53.616;10.032;2024-01-15T09:31:17;8.27;;;1.97;;
10872;SDS011;34586;53.616;10.032;2024-01-15T09:33:44;9.73;;;1.50;;
10872;SDS011;34586;53.616;10.032;2024-01-15T09:36:10;7.27;;;1.50;;
10872;SDS011;34586;53.616;10.032;2024-01-15T09:38:36;6.30;;;1.20;;
10872;SDS011;34586;53.616;10.032;2024-01-15T09:41:01;13.47;;;1.80;;
10872;SDS011;34586;53.616;10.032;2024-01-15T09:43:27;14.37;;;2.00;;
10872;SDS011;34586;53.616;10.032;2024-01-15T09:45:53;10.90;;;1.90;;
10872;SDS011;34586;53.616;10.032;2024-01-15T09:48:19;9.53;;;1.83;;
10872;SDS011;34586;53.616;10.032;2024-01-15T09:50:45;5.83;;;1.90;;
10872;SDS011;34586;53.616;10.032;2024-01-15T09:53:11;6.67;;;1.50;;
10872;SDS011;34586;53.616;10.032;2024-01-15T09:55:40;9.53;;;1.77;;
10872;SDS011;34586;53.616;10.032;2024-01-15T09:58:06;6.77;;;1.67;;
10872;SDS011;34586;53.616;10.032;2024-01-15T10:00:32;6.07;;;1.13;;
10872;SDS011;34586;53.616;10.032;2024-01-15T10:03:03;7.70;;;1.40;;
10872;SDS011;34586;53.616;10.032;2024-01-15T10:05:31;8.40;;;1.70;;
10872;SDS011;34586;53.616;10.032;2024-01-15T10:07:57;14.57;;;1.90;;
10872;SDS011;34586;53.616;10.032;2024-01-15T10:10:25;10.93;;;1.77;;
10872;SDS011;34586;53.616;10.032;2024-01-15T10:12:50;10.50;;;1.67;;
10872;SDS011;34586;53.616;10.032;2024-01-15T10:15:16;10.57;;;1.37;;
10872;SDS011;34586;53.616;10.032;2024-01-15T10:17:42;13.60;;;1.90;;
10872;SDS011;34586;53.616;10.032;2024-01-15T10:20:09;9.70;;;1.70;;
10872;SDS011;34586;53.616;10.032;2024-01-15T10:22:38;9.73;;;1.63;;
10872;SDS011;34586;53.616;10.032;2024-01-15T10:25:05;11.57;;;2.23;;
10872;SDS011;34586;53.616;10.032;2024-01-15T10:27:35;8.73;;;1.53;;
10872;SDS011;34586;53.616;10.032;2024-01-15T10:30:01;8.03;;;2.03;;
10872;SDS011;34586;53.616;10.032;2024-01-15T10:32:27;8.67;;;1.83;;
10872;SDS011;34586;53.616;10.032;2024-01-15T10:34:54;8.30;;;1.77;;
10872;SDS011;34586;53.616;10.032;2024-01-15T10:37:19;9.87;;;1.73;;
10872;SDS011;34586;53.616;10.032;2024-01-15T10:39:48;4.73;;;1.50;;
10872;SDS011;34586;53.616;10.032;2024-01-15T10:42:14;5.67;;;1.53;;
10872;SDS011;34586;53.616;10.032;2024-01-15T10:44:41;6.43;;;1.30;;
10872;SDS011;34586;53.616;10.032;2024-01-15T10:47:08;4.83;;;1.40;;
10872;SDS011;34586;53.616;10.032;2024-01-15T10:49:34;9.83;;;1.23;;
10872;SDS011;34586;53.616;10.032;2024-01-15T10:52:00;9.37;;;1.17;;
10872;SDS011;34586;53.616;10.032;2024-01-15T10:54:27;7.87;;;1.47;;
10872;SDS011;34586;53.616;10.032;2024-01-15T10:56:53;7.13;;;1.40;;
10872;SDS011;34586;53.616;10.032;2024-01-15T10:59:20;5.80;;;1.03;;
10872;SDS011;34586;53.616;10.032;2024-01-15T11:01:47;4.33;;;1.10;;
10872;SDS011;34586;53.616;10.032;2024-01-15T11:04:14;6.10;;;1.27;;
10872;SDS011;34586;53.616;10.032;2024-01-15T11:06:45;4.37;;;1.37;;
10872;SDS011;34586;53.616;10.032;2024-01-15T11:09:13;4.43;;;0.80;;
10872;SDS011;34586;53.616;10.032;2024-01-15T11:11:40;3.13;;;0.60;;
10872;SDS011;34586;53.616;10.032;2024-01-15T11:14:07;3.77;;;0.90;;
10872;SDS011;34586;53.616;10.032;2024-01-15T11:16:53;4.10;;;1.00;;
10872;SDS011;34586;53.616;10.032;2024-01-15T11:19:19;2.20;;;0.63;;
10872;SDS011;34586;53.616;10.032;2024-01-15T11:21:44;3.20;;;0.70;;
10872;SDS011;34586;53.616;10.032;2024-01-15T11:24:10;2.37;;;0.80;;
10872;SDS011;34586;53.616;10.032;2024-01-15T11:26:55;2.20;;;0.90;;
10872;SDS011;34586;53.616;10.032;2024-01-15T11:29:28;4.10;;;1.00;;
10872;SDS011;34586;53.616;10.032;2024-01-15T11:32:02;4.63;;;1.10;;
10872;SDS011;34586;53.616;10.032;2024-01-15T11:37:27;9.00;;;6.23;;
10872;SDS011;34586;53.616;10.032;2024-01-15T11:40:12;4.63;;;1.87;;
10872;SDS011;34586;53.616;10.032;2024-01-15T11:42:39;7.57;;;2.47;;
10872;SDS011;34586;53.616;10.032;2024-01-15T11:45:04;4.40;;;1.20;;
10872;SDS011;34586;53.616;10.032;2024-01-15T11:47:55;5.90;;;1.60;;
10872;SDS011;34586;53.616;10.032;2024-01-15T11:50:25;6.87;;;1.43;;
10872;SDS011;34586;53.616;10.032;2024-01-15T11:53:02;6.10;;;1.60;;
10872;SDS011;34586;53.616;10.032;2024-01-15T11:55:35;6.57;;;2.00;;
10872;SDS011;34586;53.616;10.032;2024-01-15T11:58:09;6.67;;;1.50;;
10872;SDS011;34586;53.616;10.032;2024-01-15T12:00:35;9.50;;;1.73;;
10872;SDS011;34586;53.616;10.032;2024-01-15T12:03:08;5.70;;;1.57;;
10872;SDS011;34586;53.616;10.032;2024-01-15T12:05:36;7.90;;;1.83;;
10872;SDS011;34586;53.616;10.032;2024-01-15T12:08:03;4.73;;;1.43;;
10872;SDS011;34586;53.616;10.032;2024-01-15T12:10:32;4.60;;;1.20;;
10872;SDS011;34586;53.616;10.032;2024-01-15T12:13:04;6.97;;;1.40;;
10872;SDS011;34586;53.616;10.032;2024-01-15T12:15:34;9.43;;;2.03;;
10872;SDS011;34586;53.616;10.032;2024-01-15T12:18:00;6.03;;;1.80;;
10872;SDS011;34586;53.616;10.032;2024-01-15T12:20:28;5.67;;;1.67;;
10872;SDS011;34586;53.616;10.032;2024-01-15T12:22:55;10.57;;;1.97;;
10872;SDS011;34586;53.616;10.032;2024-01-15T12:25:21;8.40;;;1.83;;
10872;SDS011;34586;53.616;10.032;2024-01-15T12:27:47;6.47;;;1.60;;
10872;SDS011;34586;53.616;10.032;2024-01-15T12:30:13;5.90;;;1.60;;
10872;SDS011;34586;53.616;10.032;2024-01-15T12:32:40;7.03;;;2.03;;
10872;SDS011;34586;53.616;10.032;2024-01-15T12:35:07;6.70;;;1.47;;
10872;SDS011;34586;53.616;10.032;2024-01-15T12:37:35;5.30;;;1.40;;
10872;SDS011;34586;53.616;10.032;2024-01-15T12:40:07;7.57;;;1.37;;
10872;SDS011;34586;53.616;10.032;2024-01-15T12:42:35;6.27;;;1.47;;
10872;SDS011;34586;53.616;10.032;2024-01-15T12:45:01;5.40;;;1.17;;
10872;SDS011;34586;53.616;10.032;2024-01-15T12:47:29;3.90;;;1.30;;
10872;SDS011;34586;53.616;10.032;2024-01-15T12:49:56;4.60;;;1.17;;
10872;SDS011;34586;53.616;10.032;2024-01-15T12:52:22;4.90;;;1.10;;
10872;SDS011;34586;53.616;10.032;2024-01-15T12:54:49;3.83;;;1.23;;
10872;SDS011;34586;53.616;10.032;2024-01-15T12:57:15;6.33;;;1.30;;
10872;SDS011;34586;53.616;10.032;2024-01-15T12:59:41;4.27;;;1.17;;
10872;SDS011;34586;53.616;10.032;2024-01-15T13:02:06;8.03;;;1.07;;
10872;SDS011;34586;53.616;10.032;2024-01-15T13:04:32;6.70;;;1.40;;
10872;SDS011;34586;53.616;10.032;2024-01-15T13:06:57;3.03;;;1.10;;
10872;SDS011;34586;53.616;10.032;2024-01-15T13:09:23;2.13;;;1.00;;
10872;SDS011;34586;53.616;10.032;2024-01-15T13:11:49;3.13;;;1.17;;
10872;SDS011;34586;53.616;10.032;2024-01-15T13:14:14;3.43;;;1.00;;
10872;SDS011;34586;53.616;10.032;2024-01-15T13:16:40;2.63;;;1.40;;
10872;SDS011;34586;53.616;10.032;2024-01-15T13:19:08;5.00;;;1.33;;
10872;SDS011;34586;53.616;10.032;2024-01-15T13:21:35;2.03;;;1.33;;
10872;SDS011;34586;53.616;10.032;2024-01-15T13:24:07;2.87;;;0.97;;
10872;SDS011;34586;53.616;10.032;2024-01-15T13:26:34;4.73;;;1.00;;
10872;SDS011;34586;53.616;10.032;2024-01-15T13:29:00;2.37;;;0.83;;
10872;SDS011;34586;53.616;10.032;2024-01-15T13:31:27;4.70;;;1.10;;
10872;SDS011;34586;53.616;10.032;2024-01-15T13:33:53;4.70;;;1.20;;
10872;SDS011;34586;53.616;10.032;2024-01-15T13:36:20;3.20;;;1.10;;
10872;SDS011;34586;53.616;10.032;2024-01-15T13:38:47;2.63;;;0.80;;
10872;SDS011;34586;53.616;10.032;2024-01-15T13:41:13;2.53;;;0.83;;
10872;SDS011;34586;53.616;10.032;2024-01-15T13:43:40;2.00;;;0.97;;
10872;SDS011;34586;53.616;10.032;2024-01-15T13:46:05;5.57;;;1.00;;
10872;SDS011;34586;53.616;10.032;2024-01-15T13:48:31;1.20;;;0.90;;
10872;SDS011;34586;53.616;10.032;2024-01-15T13:50:57;2.60;;;0.87;;
10872;SDS011;34586;53.616;10.032;2024-01-15T13:53:24;5.20;;;1.07;;
10872;SDS011;34586;53.616;10.032;2024-01-15T13:55:50;3.40;;;0.73;;
10872;SDS011;34586;53.616;10.032;2024-01-15T13:58:15;3.43;;;1.37;;
10872;SDS011;34586;53.616;10.032;2024-01-15T14:00:43;2.70;;;0.93;;
10872;SDS011;34586;53.616;10.032;2024-01-15T14:03:09;1.93;;;0.90;;
10872;SDS011;34586;53.616;10.032;2024-01-15T14:05:34;1.50;;;0.90;;
10872;SDS011;34586;53.616;10.032;2024-01-15T14:08:00;1.97;;;0.90;;
10872;SDS011;34586;53.616;10.032;2024-01-15T14:10:26;2.10;;;0.90;;
10872;SDS011;34586;53.616;10.032;2024-01-15T14:12:51;1.47;;;0.73;;
10872;SDS011;34586;53.616;10.032;2024-01-15T14:15:17;2.83;;;0.80;;
10872;SDS011;34586;53.616;10.032;2024-01-15T14:17:44;2.93;;;1.30;;
10872;SDS011;34586;53.616;10.032;2024-01-15T14:20:09;1.90;;;0.80;;
10872;SDS011;34586;53.616;10.032;2024-01-15T14:22:35;2.90;;;1.10;;
10872;SDS011;34586;53.616;10.032;2024-01-15T14:25:01;3.30;;;1.03;;
10872;SDS011;34586;53.616;10.032;2024-01-15T14:27:26;3.93;;;1.00;;